Time;durP1;ratioP1;P1;durP2;ratioP2;P2;SDS_P1;SDS_P2;PMS_P1;PMS_P2;Temp;Humidity;BMP_temperature;BMP_pressure;BME280_temperature;BME280_humidity;BME280_pressure;Samples;Min_cycle;Max_cycle;Signal;HPM_P1;HPM_P2
2022/02/01 00:01:18;;;;;;;4.07;0.77;;;;;;;9.86;100.00;100488.06;5032379;28;20053;-50
2022/02/01 00:04:35;;;;;;;6.15;1.23;;;;;;;9.89;100.00;100476.03;5031960;28;20052;-50
2022/02/01 00:36:53;;;;;;;0.20;0.20;;;;;;;9.84;100.00;100459.94;5034720;28;20053;-50
2022/02/01 00:39:59;;;;;;;0.98;0.30;;;;;;;9.86;100.00;100459.47;5035573;28;20057;-50
2022/02/01 00:43:02;;;;;;;2.05;0.47;;;;;;;9.89;100.00;100473.25;5035393;28;20060;-50
2022/02/01 00:46:05;;;;;;;0.10;0.10;;;;;;;9.91;100.00;100447.75;5035535;28;20053;-50
2022/02/01 00:49:09;;;;;;;1.35;0.43;;;;;;;9.90;100.00;100451.75;5035072;28;20064;-50
2022/02/01 00:52:13;;;;;;;0.82;0.28;;;;;;;9.85;100.00;100435.69;5035172;28;20052;-50
2022/02/01 00:55:16;;;;;;;0.80;0.15;;;;;;;9.81;100.00;100435.03;5035100;28;20052;-50
2022/02/01 00:58:20;;;;;;;0.50;0.20;;;;;;;9.77;100.00;100446.28;5035230;28;20395;-50
2022/02/01 01:01:24;;;;;;;0.10;0.10;;;;;;;9.72;100.00;100437.78;5034724;28;20048;-51
2022/02/01 01:04:27;;;;;;;1.20;0.22;;;;;;;9.72;100.00;100457.25;5034184;28;20052;-50
2022/02/01 01:07:30;;;;;;;3.60;0.25;;;;;;;9.78;100.00;100447.84;5034689;28;20428;-51
2022/02/01 01:10:35;;;;;;;0.32;0.10;;;;;;;9.62;100.00;100455.63;5035126;28;20243;-51
2022/02/01 01:43:45;;;;;;;0.10;0.10;;;;;;;9.78;100.00;100449.84;5022536;28;20072;-51
2022/02/01 01:53:37;;;;;;;0.10;0.00;;;;;;;9.88;100.00;100426.41;5014279;28;20045;-51
2022/02/01 01:56:41;;;;;;;1.17;0.30;;;;;;;9.91;100.00;100414.38;5013838;28;20064;-51
2022/02/01 01:59:44;;;;;;;0.30;0.10;;;;;;;9.85;100.00;100407.84;5013523;28;20048;-51
2022/02/01 02:02:48;;;;;;;0.52;0.13;;;;;;;9.89;100.00;100394.56;5032222;28;20049;-52
2022/02/01 02:05:51;;;;;;;0.10;0.10;;;;;;;9.84;100.00;100403.50;5033824;28;20493;-52
2022/02/01 02:08:55;;;;;;;6.03;0.40;;;;;;;9.84;100.00;100392.38;5014051;28;20056;-51
2022/02/01 02:12:11;;;;;;;0.10;0.10;;;;;;;9.86;100.00;100395.47;5024924;28;20053;-51
2022/02/01 02:15:34;;;;;;;0.10;0.10;;;;;;;9.90;100.00;100390.53;5033039;28;20060;-53
2022/02/01 02:18:37;;;;;;;7.57;0.43;;;;;;;9.86;100.00;100399.03;5033380;28;20049;-52
2022/02/01 02:21:45;;;;;;;0.30;0.20;;;;;;;9.81;100.00;100415.56;5033128;28;20488;-51
2022/02/01 02:24:49;;;;;;;0.68;0.40;;;;;;;9.83;100.00;100429.78;5033320;28;20096;-54
2022/02/01 02:27:53;;;;;;;0.10;0.00;;;;;;;9.82;100.00;100417.09;5033001;28;20048;-52
2022/02/01 02:30:57;;;;;;;0.57;0.20;;;;;;;9.88;100.00;100418.06;5033049;28;20068;-52
2022/02/01 02:34:06;;;;;;;0.55;0.30;;;;;;;9.91;100.00;100428.28;5033131;28;20044;-52
2022/02/01 02:37:15;;;;;;;0.10;0.10;;;;;;;9.93;100.00;100425.81;5032685;28;20069;-53
2022/02/01 02:40:35;;;;;;;0.10;0.08;;;;;;;9.99;100.00;100432.31;5033272;28;20509;-53
2022/02/01 02:47:02;;;;;;;0.50;0.20;;;;;;;9.94;100.00;100408.66;5013471;28;20045;-53
2022/02/01 02:50:06;;;;;;;0.20;0.20;;;;;;;9.90;100.00;100394.13;5013106;28;20249;-53
2022/02/01 02:53:09;;;;;;;0.13;0.10;;;;;;;9.99;100.00;100385.03;5013569;28;20056;-53
2022/02/01 02:56:13;;;;;;;0.20;0.17;;;;;;;10.03;100.00;100359.84;5012896;28;20052;-53
2022/02/01 02:59:18;;;;;;;1.13;0.40;;;;;;;10.13;100.00;100341.97;5013136;28;20045;-53
2022/02/01 03:02:21;;;;;;;2.05;0.65;;;;;;;10.18;100.00;100333.78;5027629;28;20501;-53
2022/02/01 03:05:24;;;;;;;0.82;0.30;;;;;;;10.17;100.00;100307.19;5033102;28;20378;-53
2022/02/01 03:08:28;;;;;;;0.10;0.10;;;;;;;10.16;100.00;100308.41;5032645;28;20060;-53
2022/02/01 03:11:31;;;;;;;0.15;0.15;;;;;;;10.18;100.00;100294.06;5032367;28;20397;-53
2022/02/01 03:15:07;;;;;;;0.10;0.10;;;;;;;10.19;100.00;100290.81;5032646;28;20504;-53
2022/02/01 03:21:33;;;;;;;1.10;0.38;;;;;;;10.23;100.00;100297.00;5032144;28;20052;-53
2022/02/01 03:24:37;;;;;;;0.10;0.10;;;;;;;10.23;100.00;100288.63;5032838;28;20053;-53
2022/02/01 03:27:40;;;;;;;0.20;0.10;;;;;;;10.25;100.00;100283.38;5032476;28;20049;-53
2022/02/01 03:30:43;;;;;;;0.10;0.10;;;;;;;10.28;100.00;100279.69;5033160;28;20040;-53
2022/02/01 03:33:47;;;;;;;0.22;0.22;;;;;;;10.29;100.00;100278.44;5032595;28;20048;-53
2022/02/01 03:36:50;;;;;;;0.10;0.10;;;;;;;10.27;100.00;100280.91;5032489;28;20052;-53
2022/02/01 03:39:53;;;;;;;0.20;0.20;;;;;;;10.33;100.00;100262.34;5032984;28;20068;-53
2022/02/01 03:42:57;;;;;;;0.47;0.25;;;;;;;10.30;100.00;100257.72;5032365;28;20048;-53
2022/02/01 03:46:01;;;;;;;0.10;0.10;;;;;;;10.31;100.00;100259.25;5032632;28;20044;-53
2022/02/01 03:49:04;;;;;;;0.10;0.10;;;;;;;10.22;100.00;100247.34;5035155;28;20049;-53
2022/02/01 03:52:09;;;;;;;0.17;0.10;;;;;;;10.27;100.00;100253.06;5036227;28;20061;-53
2022/02/01 03:55:12;;;;;;;0.10;0.10;;;;;;;10.32;100.00;100237.75;5036307;28;20405;-53
2022/02/01 03:58:16;;;;;;;0.68;0.43;;;;;;;10.34;100.00;100244.41;5036360;28;20053;-53
2022/02/01 04:01:19;;;;;;;0.57;0.40;;;;;;;10.36;100.00;100233.59;5035971;28;20048;-54
2022/02/01 04:04:24;;;;;;;0.20;0.20;;;;;;;10.38;100.00;100225.53;5036026;28;20057;-54
2022/02/01 04:07:28;;;;;;;0.10;0.05;;;;;;;10.44;100.00;100234.81;5034609;28;20045;-54
2022/02/01 04:10:32;;;;;;;0.20;0.17;;;;;;;10.47;100.00;100233.88;5035944;28;20501;-54
2022/02/01 04:13:35;;;;;;;0.20;0.20;;;;;;;10.51;100.00;100234.50;5015790;28;20048;-54
2022/02/01 04:16:39;;;;;;;0.75;0.20;;;;;;;10.45;100.00;100219.66;5015901;28;20506;-53
2022/02/01 04:19:44;;;;;;;0.55;0.40;;;;;;;10.48;100.00;100237.44;5015976;28;20049;-54
2022/02/01 04:22:47;;;;;;;0.20;0.20;;;;;;;10.52;100.00;100246.41;5034214;28;20056;-54
2022/02/01 04:25:51;;;;;;;1.23;0.85;;;;;;;10.55;100.00;100228.75;5035439;28;20044;-54
2022/02/01 04:28:54;;;;;;;0.10;0.10;;;;;;;10.48;100.00;100227.06;5035831;28;20052;-54
2022/02/01 04:31:57;;;;;;;0.10;0.00;;;;;;;10.48;100.00;100221.50;5035297;28;20497;-54
2022/02/01 04:35:02;;;;;;;0.10;0.10;;;;;;;10.60;100.00;100237.28;5035372;28;20116;-54
2022/02/01 04:51:31;;;;;;;0.47;0.20;;;;;;;10.85;100.00;100219.41;5138795;27;20391;-53
2022/02/01 04:54:34;;;;;;;0.10;0.10;;;;;;;10.98;100.00;100208.09;5110083;28;20066;-53
2022/02/01 04:57:46;;;;;;;1.17;0.13;;;;;;;10.99;100.00;100227.13;5110381;28;20058;-53
2022/02/01 05:00:51;;;;;;;0.22;0.10;;;;;;;10.95;100.00;100232.09;5123113;28;20051;-53
2022/02/01 05:03:54;;;;;;;0.10;0.10;;;;;;;10.96;100.00;100199.44;5130380;28;20414;-53
2022/02/01 05:06:57;;;;;;;0.10;0.00;;;;;;;10.99;100.00;100209.63;5130555;28;20054;-53
2022/02/01 05:10:01;;;;;;;5.57;0.47;;;;;;;11.06;100.00;100195.38;5130352;28;20046;-53
2022/02/01 05:16:43;;;;;;;0.15;0.10;;;;;;;11.18;100.00;100194.38;5130415;28;20058;-53
2022/02/01 05:19:53;;;;;;;1.05;0.28;;;;;;;11.25;100.00;100169.72;5130190;28;20046;-53
2022/02/01 05:22:57;;;;;;;0.10;0.00;;;;;;;11.32;100.00;100190.91;5130635;28;20050;-53
2022/02/01 05:26:01;;;;;;;0.10;0.10;;;;;;;11.36;100.00;100192.28;5130000;28;20514;-53
2022/02/01 05:29:05;;;;;;;1.65;0.40;;;;;;;11.37;100.00;100187.47;5130409;28;20046;-53
2022/02/01 05:32:23;;;;;;;0.25;0.20;;;;;;;11.31;100.00;100190.13;5117541;28;20066;-53
2022/02/01 05:35:27;;;;;;;10.77;0.57;;;;;;;11.31;100.00;100172.63;5129656;28;20071;-53
2022/02/01 05:38:31;;;;;;;0.20;0.20;;;;;;;11.36;100.00;100169.97;5109767;28;20059;-53
2022/02/01 05:41:35;;;;;;;0.15;0.15;;;;;;;11.37;100.00;100177.09;5109393;28;20055;-53
2022/02/01 05:44:38;;;;;;;0.10;0.10;;;;;;;11.41;100.00;100160.19;5123520;28;20058;-54
2022/02/01 05:47:41;;;;;;;0.10;0.10;;;;;;;11.44;100.00;100167.59;5129698;28;20047;-53
2022/02/01 05:50:50;;;;;;;0.32;0.32;;;;;;;11.47;100.00;100152.72;5125685;28;20047;-53
2022/02/01 05:53:53;;;;;;;0.20;0.20;;;;;;;11.46;100.00;100153.94;5115763;28;20058;-53
2022/02/01 05:56:58;;;;;;;0.10;0.00;;;;;;;11.46;100.00;100148.38;5115956;28;20043;-53
2022/02/01 06:00:03;;;;;;;0.10;0.10;;;;;;;11.48;100.00;100148.66;5115933;28;20042;-54
2022/02/01 06:03:07;;;;;;;1.38;0.28;;;;;;;11.45;100.00;100146.84;5115596;28;20054;-53
2022/02/01 06:06:11;;;;;;;0.10;0.10;;;;;;;11.43;100.00;100158.44;5115437;28;20055;-54
2022/02/01 06:09:14;;;;;;;0.10;0.10;;;;;;;11.46;100.00;100144.84;5094888;28;20047;-54
2022/02/01 06:12:17;;;;;;;0.10;0.10;;;;;;;11.43;100.00;100141.72;5095351;28;20055;-54
2022/02/01 06:15:26;;;;;;;0.38;0.10;;;;;;;11.46;100.00;100145.59;5113396;28;20054;-54
2022/02/01 06:18:30;;;;;;;0.10;0.00;;;;;;;11.51;100.00;100146.94;5115408;28;20043;-53
2022/02/01 06:21:33;;;;;;;0.20;0.20;;;;;;;11.55;100.00;100162.25;5114954;28;20042;-54
2022/02/01 06:24:38;;;;;;;0.10;0.10;;;;;;;11.56;100.00;100149.09;5115642;28;20403;-54
2022/02/01 06:27:41;;;;;;;2.85;0.68;;;;;;;11.56;100.00;100163.81;5115654;28;20058;-53
2022/02/01 06:30:45;;;;;;;0.55;0.28;;;;;;;11.59;100.00;100160.06;5115098;28;20066;-53
2022/02/01 06:33:49;;;;;;;4.28;0.47;;;;;;;11.63;100.00;100141.13;5115519;28;20062;-53
2022/02/01 06:36:52;;;;;;;1.95;1.17;;;;;;;11.68;100.00;100167.63;5115079;28;20055;-54
2022/02/01 06:39:55;;;;;;;0.77;0.68;;;;;;;11.66;100.00;100159.72;5102289;28;20490;-53
2022/02/01 06:43:00;;;;;;;1.00;0.98;;;;;;;11.69;100.00;100164.38;5114095;28;20113;-54
2022/02/01 06:46:06;;;;;;;4.70;1.38;;;;;;;11.70;100.00;100160.34;5114954;28;20399;-54
2022/02/01 06:49:11;;;;;;;3.05;1.15;;;;;;;11.68;100.00;100167.63;5114846;28;20383;-54
2022/02/01 06:52:14;;;;;;;0.45;0.45;;;;;;;11.55;100.00;100167.84;5114658;28;20394;-54
2022/02/01 06:55:24;;;;;;;0.45;0.43;;;;;;;11.67;100.00;100182.84;5114568;28;20483;-53
2022/02/01 06:58:27;;;;;;;1.65;0.75;;;;;;;11.67;100.00;100182.84;5115094;28;20050;-53
2022/02/01 07:01:31;;;;;;;0.20;0.20;;;;;;;11.72;100.00;100196.13;5114544;28;20039;-54
2022/02/01 07:04:35;;;;;;;2.75;0.30;;;;;;;11.72;100.00;100185.72;5114025;28;20101;-54
2022/02/01 07:07:38;;;;;;;0.88;0.68;;;;;;;11.75;100.00;100175.66;5101812;28;20419;-54
2022/02/01 07:10:41;;;;;;;1.42;0.50;;;;;;;11.76;100.00;100189.13;5114411;28;20403;-54
2022/02/01 07:13:48;;;;;;;0.20;0.20;;;;;;;11.80;100.00;100181.34;5114291;28;20050;-54
2022/02/01 07:16:51;;;;;;;0.40;0.30;;;;;;;11.83;100.00;100185.97;5114309;28;20482;-54
2022/02/01 07:19:55;;;;;;;0.57;0.40;;;;;;;11.82;100.00;100184.44;5113989;28;20043;-54
2022/02/01 07:22:59;;;;;;;0.75;0.17;;;;;;;11.83;100.00;100185.19;5114545;28;20054;-54
2022/02/01 07:26:03;;;;;;;0.65;0.10;;;;;;;11.83;100.00;100179.59;5113896;28;20419;-54
2022/02/01 07:29:07;;;;;;;1.05;0.82;;;;;;;11.85;100.00;100186.25;5114011;28;20419;-54
2022/02/01 07:32:10;;;;;;;0.40;0.28;;;;;;;11.85;100.00;100172.31;5113435;28;20066;-54
2022/02/01 07:35:14;;;;;;;1.38;0.50;;;;;;;11.88;100.00;100165.00;5113546;28;20058;-54
2022/02/01 07:38:22;;;;;;;1.75;0.20;;;;;;;11.88;100.00;100168.56;5108074;28;20062;-54
2022/02/01 07:41:25;;;;;;;0.10;0.10;;;;;;;11.92;100.00;100160.00;5113534;28;20395;-53
2022/02/01 07:44:29;;;;;;;0.30;0.10;;;;;;;11.95;100.00;100164.66;5114075;28;20509;-54
2022/02/01 07:47:34;;;;;;;0.47;0.28;;;;;;;11.95;100.00;100154.22;5113695;28;20494;-54
2022/02/01 07:50:39;;;;;;;0.43;0.22;;;;;;;11.93;100.00;100148.34;5113042;28;20467;-54
2022/02/01 07:53:43;;;;;;;0.10;0.10;;;;;;;11.94;100.00;100157.50;5113152;28;20051;-53
2022/02/01 07:56:46;;;;;;;0.50;0.13;;;;;;;11.92;100.00;100138.47;5112661;28;20054;-53
2022/02/01 07:59:49;;;;;;;3.97;0.45;;;;;;;11.97;100.00;100156.56;5113670;28;20046;-54
2022/02/01 08:02:55;;;;;;;1.48;0.25;;;;;;;11.96;100.00;100150.22;5112464;28;20047;-53
2022/02/01 08:05:58;;;;;;;0.20;0.20;;;;;;;12.03;100.00;100143.50;5111564;28;20058;-53
2022/02/01 08:09:11;;;;;;;1.55;0.40;;;;;;;12.04;100.00;100145.78;5112270;28;20065;-53
2022/02/01 08:19:06;;;;;;;4.28;0.52;;;;;;;12.06;100.00;100157.25;5111782;28;20043;-53
2022/02/01 08:22:29;;;;;;;0.38;0.10;;;;;;;12.00;100.00;100145.22;5111004;28;20391;-53
2022/02/01 08:25:33;;;;;;;0.10;0.10;;;;;;;12.09;100.00;100155.53;5111465;28;20066;-53
2022/02/01 08:28:37;;;;;;;0.70;0.25;;;;;;;12.12;100.00;100129.44;5113100;28;20406;-53
2022/02/01 08:31:40;;;;;;;0.47;0.22;;;;;;;12.17;100.00;100148.34;5112901;28;20046;-53
2022/02/01 08:34:43;;;;;;;0.10;0.10;;;;;;;12.18;100.00;100139.47;5113371;28;20050;-53
2022/02/01 08:37:48;;;;;;;1.08;0.77;;;;;;;12.22;100.00;100144.84;5100294;28;20051;-53
2022/02/01 08:40:51;;;;;;;0.35;0.32;;;;;;;12.19;100.00;100129.84;5112640;28;20521;-53
2022/02/01 08:43:55;;;;;;;0.82;0.30;;;;;;;12.16;100.00;100155.94;5112947;28;20055;-53
2022/02/01 08:46:59;;;;;;;0.52;0.47;;;;;;;12.21;100.00;100159.31;5111798;28;20058;-53
2022/02/01 08:50:04;;;;;;;2.28;0.63;;;;;;;12.24;100.00;100147.16;5112149;28;20047;-53
2022/02/01 08:53:23;;;;;;;0.68;0.57;;;;;;;12.20;100.00;100158.53;5112028;28;20046;-53
2022/02/01 09:07:16;;;;;;;4.70;1.02;;;;;;;12.21;100.00;100165.66;6317926;22;20654;-53
2022/02/01 09:10:20;;;;;;;2.05;0.88;;;;;;;12.26;100.00;100155.84;6315888;22;20331;-53
2022/02/01 09:13:23;;;;;;;1.73;1.20;;;;;;;12.26;100.00;100148.22;6315071;22;20457;-53
2022/02/01 09:16:26;;;;;;;0.43;0.35;;;;;;;12.25;100.00;100143.13;6317552;22;20023;-53
2022/02/01 09:19:30;;;;;;;0.38;0.38;;;;;;;12.27;100.00;100135.03;6316401;22;20332;-53
2022/02/01 09:22:34;;;;;;;0.50;0.50;;;;;;;12.39;100.00;100159.16;6315114;22;20022;-53
2022/02/01 09:25:37;;;;;;;2.78;1.02;;;;;;;12.37;100.00;100156.03;6297819;22;20085;-53
2022/02/01 09:28:41;;;;;;;4.45;1.63;;;;;;;12.46;100.00;100153.16;6315627;22;20022;-53
2022/02/01 09:31:44;;;;;;;0.55;0.35;;;;;;;12.53;100.00;100169.53;6315973;22;20038;-53
2022/02/01 09:34:48;;;;;;;0.35;0.32;;;;;;;12.61;100.00;100142.75;6317823;22;20018;-53
2022/02/01 09:37:51;;;;;;;3.97;0.93;;;;;;;12.69;100.00;100155.84;6315713;22;20312;-53
2022/02/01 09:40:55;;;;;;;1.02;0.22;;;;;;;12.68;100.00;100153.53;6317291;22;20018;-53
2022/02/01 09:43:58;;;;;;;0.43;0.43;;;;;;;12.66;100.00;100156.06;6314348;22;20022;-53
2022/02/01 09:47:02;;;;;;;0.35;0.35;;;;;;;12.63;100.00;100145.84;6315407;22;20018;-53
2022/02/01 09:50:07;;;;;;;0.65;0.30;;;;;;;12.70;100.00;100128.69;6315745;22;20018;-52
2022/02/01 09:53:10;;;;;;;0.70;0.30;;;;;;;12.77;100.00;100139.47;6316247;22;20022;-53
2022/02/01 09:56:15;;;;;;;0.77;0.10;;;;;;;12.75;100.00;100136.41;6315129;22;20022;-53
2022/02/01 09:59:35;;;;;;;1.13;0.45;;;;;;;12.76;100.00;100135.13;6316161;22;20771;-53
2022/02/01 10:02:41;;;;;;;1.38;0.77;;;;;;;12.79;100.00;100142.56;6317654;22;20026;-52
2022/02/01 10:06:03;;;;;;;0.47;0.25;;;;;;;12.86;100.00;100139.38;6315870;22;20469;-53
2022/02/01 10:09:09;;;;;;;0.63;0.25;;;;;;;12.92;100.00;100129.81;6308666;22;20018;-53
2022/02/01 10:12:17;;;;;;;0.60;0.30;;;;;;;12.94;100.00;100134.91;6309756;22;20022;-53
2022/02/01 10:15:25;;;;;;;0.47;0.47;;;;;;;12.96;100.00;100129.59;6308442;22;20038;-53
2022/02/01 10:18:32;;;;;;;0.10;0.05;;;;;;;12.98;100.00;100127.09;6308362;22;20022;-52
2022/02/01 10:21:48;;;;;;;0.30;0.22;;;;;;;13.03;100.00;100118.03;6308676;22;20030;-52
2022/02/01 10:24:52;;;;;;;0.38;0.38;;;;;;;13.12;100.00;100117.16;6308692;22;20022;-52
2022/02/01 10:28:00;;;;;;;0.10;0.00;;;;;;;13.23;100.00;100114.53;6309065;22;20021;-52
2022/02/01 10:31:20;;;;;;;0.35;0.22;;;;;;;13.29;100.00;100116.16;6308194;22;20038;-52
2022/02/01 10:37:32;;;;;;;0.10;0.10;;;;;;;13.36;100.00;100095.38;6309876;22;20026;-52
2022/02/01 10:40:43;;;;;;;0.40;0.10;;;;;;;13.32;100.00;100112.34;6310239;22;20450;-52
2022/02/01 10:43:51;;;;;;;0.10;0.10;;;;;;;13.38;100.00;100115.25;6308092;22;20470;-52
2022/02/01 10:46:55;;;;;;;0.03;0.03;;;;;;;13.28;100.00;100123.00;6308874;22;20541;-52
2022/02/01 10:50:03;;;;;;;6.82;0.40;;;;;;;13.14;100.00;100118.22;6308533;22;20339;-52
2022/02/01 10:53:21;;;;;;;0.52;0.15;;;;;;;13.13;100.00;100111.09;6308498;22;20022;-52
2022/02/01 10:56:24;;;;;;;0.50;0.50;;;;;;;13.11;100.00;100108.00;6307933;22;20526;-52
2022/02/01 10:59:29;;;;;;;0.20;0.20;;;;;;;13.25;100.00;100112.78;6307426;22;20022;-52
2022/02/01 11:02:33;;;;;;;1.30;0.20;;;;;;;13.23;100.00;100112.47;6310491;22;20459;-52
2022/02/01 11:05:40;;;;;;;1.50;0.25;;;;;;;13.30;100.00;100100.88;6308892;22;20033;-52
2022/02/01 11:08:46;;;;;;;0.05;0.00;;;;;;;13.36;100.00;100096.13;6308210;22;20026;-53
2022/02/01 11:11:56;;;;;;;0.47;0.15;;;;;;;13.39;100.00;100106.34;6309290;22;20462;-52
2022/02/01 11:14:59;;;;;;;1.05;0.32;;;;;;;13.54;100.00;100106.28;6308097;22;20018;-52
2022/02/01 11:18:15;;;;;;;0.10;0.10;;;;;;;13.53;100.00;100094.34;6307307;22;20022;-52
2022/02/01 11:21:19;;;;;;;5.15;0.40;;;;;;;13.53;100.00;100093.56;6308624;22;20022;-52
2022/02/01 11:24:37;;;;;;;0.50;0.30;;;;;;;13.55;100.00;100091.03;6308971;22;20022;-52
2022/02/01 11:28:14;;;;;;;1.65;0.20;;;;;;;13.65;100.00;100101.59;6309392;22;20466;-52
2022/02/01 11:31:30;;;;;;;0.35;0.10;;;;;;;13.66;100.00;100103.13;6308130;22;20454;-52
2022/02/01 11:34:38;;;;;;;0.10;0.10;;;;;;;13.59;100.00;100091.59;6307545;22;20023;-52
2022/02/01 11:37:49;;;;;;;1.00;0.40;;;;;;;13.63;100.00;100092.94;6306530;22;20022;-52
2022/02/01 11:41:07;;;;;;;0.30;0.20;;;;;;;13.64;100.00;100111.25;6307497;22;20023;-52
2022/02/01 11:44:25;;;;;;;0.13;0.10;;;;;;;13.69;100.00;100062.97;6307628;22;20446;-52
2022/02/01 11:47:34;;;;;;;0.32;0.30;;;;;;;13.71;100.00;100092.50;6308585;22;20018;-52
2022/02/01 11:50:55;;;;;;;5.65;0.30;;;;;;;13.90;100.00;100077.72;6306633;22;20022;-52
2022/02/01 11:53:59;;;;;;;0.10;0.10;;;;;;;13.96;100.00;100074.97;6307052;22;20026;-51
2022/02/01 11:57:13;;;;;;;0.10;0.00;;;;;;;14.01;100.00;100077.06;6309538;22;20038;-51
2022/02/01 12:00:18;;;;;;;0.10;0.10;;;;;;;14.07;100.00;100063.88;6308075;22;20026;-52
2022/02/01 12:03:28;;;;;;;0.20;0.20;;;;;;;14.08;100.00;100087.81;6308224;22;20022;-51
2022/02/01 12:06:54;;;;;;;0.30;0.20;;;;;;;14.01;100.00;100055.41;6307027;22;20459;-52
2022/02/01 12:10:09;;;;;;;0.40;0.10;;;;;;;13.90;100.00;100076.94;6308136;22;20018;-52
2022/02/01 12:13:19;;;;;;;0.30;0.15;;;;;;;13.97;100.00;100059.72;6307111;22;20045;-51
2022/02/01 12:16:22;;;;;;;1.83;0.50;;;;;;;14.12;100.00;100046.38;6306714;22;20455;-51
2022/02/01 12:19:37;;;;;;;0.00;0.00;;;;;;;14.25;100.00;100063.56;6307696;22;20458;-51
2022/02/01 12:22:54;;;;;;;0.63;0.20;;;;;;;14.29;100.00;100064.13;6307359;22;20022;-52
2022/02/01 12:25:58;;;;;;;0.10;0.10;;;;;;;14.29;100.00;100059.25;6308840;22;20526;-51
2022/02/01 12:29:06;;;;;;;0.68;0.30;;;;;;;14.37;100.00;100060.38;6309450;22;20022;-51
2022/02/01 12:32:10;;;;;;;0.10;0.10;;;;;;;14.42;100.00;100039.28;6307588;22;20022;-51
2022/02/01 12:35:14;;;;;;;0.10;0.10;;;;;;;14.54;100.00;100034.50;6307326;22;20447;-51
2022/02/01 12:38:22;;;;;;;0.10;0.00;;;;;;;14.58;100.00;100024.59;6306274;22;20038;-51
2022/02/01 12:41:31;;;;;;;2.20;0.43;;;;;;;14.64;100.00;100033.06;6307220;22;20482;-51
2022/02/01 12:47:39;;;;;;;0.82;0.20;;;;;;;14.53;100.00;100018.97;6308827;22;20015;-51
2022/02/01 12:51:09;;;;;;;1.50;0.30;;;;;;;14.37;100.00;100045.59;6307121;22;20022;-51
2022/02/01 12:54:32;;;;;;;0.10;0.03;;;;;;;14.31;100.00;100005.56;6308001;22;20038;-50
2022/02/01 12:57:37;;;;;;;0.22;0.20;;;;;;;14.35;100.00;100011.69;6288312;22;20085;-54
2022/02/01 13:00:46;;;;;;;0.20;0.15;;;;;;;14.50;100.00;100023.53;6309886;22;20030;-54
2022/02/01 13:03:49;;;;;;;1.02;0.28;;;;;;;14.53;100.00;100008.50;6307143;22;20022;-54
2022/02/01 13:06:53;;;;;;;0.10;0.10;;;;;;;14.58;100.00;100030.22;6308415;22;20073;-54
2022/02/01 13:20:18;;;;;;;0.45;0.30;;;;;;;14.71;100.00;100033.34;6306800;22;20022;-54
2022/02/01 13:23:05;;;;;;;2.15;0.20;;;;;;;14.74;100.00;100007.13;6316894;22;20024;-50
2022/02/01 13:26:16;;;;;;;2.90;0.30;;;;;;;14.71;100.00;100027.75;6306764;22;20018;-50
2022/02/01 13:29:19;;;;;;;;;;;;;;;14.46;100.00;100031.41;6305914;22;20023;-54
2022/02/01 13:32:33;;;;;;;1.80;0.45;;;;;;;14.53;100.00;100022.53;6307145;22;20024;-54
2022/02/01 13:35:50;;;;;;;1.00;0.28;;;;;;;14.51;100.00;100041.88;6307629;22;20018;-55
2022/02/01 13:38:56;;;;;;;0.13;0.10;;;;;;;14.39;100.00;100012.25;6306881;22;20018;-56
2022/02/01 13:42:08;;;;;;;0.95;0.20;;;;;;;14.37;100.00;100018.34;6308428;22;20022;-54
2022/02/01 13:45:13;;;;;;;1.35;0.22;;;;;;;14.35;100.00;100039.72;6308366;22;20022;-54
2022/02/01 13:48:25;;;;;;;10.00;1.05;;;;;;;14.27;100.00;100025.34;6308527;22;20022;-54
2022/02/01 13:51:29;;;;;;;0.68;0.40;;;;;;;14.28;100.00;100026.13;6274638;22;20037;-51
2022/02/01 13:54:51;;;;;;;2.20;0.35;;;;;;;14.25;100.00;100052.34;6308878;22;20017;-50
2022/02/01 13:58:07;;;;;;;0.95;0.10;;;;;;;14.27;100.00;100047.00;6308655;22;20069;-50
2022/02/01 14:01:16;;;;;;;5.15;0.20;;;;;;;14.26;100.00;100060.25;6308301;22;20022;-50
2022/02/01 14:04:40;;;;;;;3.63;0.68;;;;;;;14.40;100.00;100056.56;6308555;22;20022;-50
2022/02/01 14:34:40;;;;;;;1.30;0.30;;;;;;;14.18;100.00;100072.41;6307742;22;20018;-50
2022/02/01 14:38:00;;;;;;;0.10;0.10;;;;;;;14.15;100.00;100087.38;6309009;22;20022;-50
2022/02/01 14:47:30;;;;;;;2.50;0.17;;;;;;;14.01;100.00;100088.25;6309570;22;20014;-53
2022/02/01 14:50:33;;;;;;;1.10;0.38;;;;;;;14.04;100.00;100098.47;6288622;22;20026;-53
2022/02/01 14:53:36;;;;;;;1.35;0.15;;;;;;;13.97;100.00;100088.47;6308109;22;20018;-55
2022/02/01 14:56:41;;;;;;;4.32;1.00;;;;;;;13.95;100.00;100095.81;6307514;22;20022;-55
2022/02/01 15:12:59;;;;;;;0.10;0.10;;;;;;;13.83;100.00;100134.13;6308353;22;20018;-53
2022/02/01 15:16:03;;;;;;;0.20;0.10;;;;;;;13.81;100.00;100133.84;6307800;22;20022;-53
2022/02/01 15:32:09;;;;;;;0.70;0.30;;;;;;;13.73;100.00;100141.13;6318333;22;20257;-50
2022/02/01 15:35:15;;;;;;;0.77;0.20;;;;;;;13.68;100.00;100137.03;6315987;22;20022;-50
2022/02/01 15:38:27;;;;;;;1.60;0.40;;;;;;;13.69;100.00;100149.75;6316998;22;20022;-51
2022/02/01 15:59:47;;;;;;;0.52;0.20;;;;;;;13.51;100.00;100161.19;5109025;28;20059;-79
2022/02/01 16:02:51;;;;;;;0.10;0.10;;;;;;;13.45;100.00;100160.34;5109447;28;20051;-79
2022/02/01 16:05:56;;;;;;;0.57;0.45;;;;;;;13.50;100.00;100165.25;5096711;28;20055;-79
2022/02/01 16:09:14;;;;;;;0.28;0.10;;;;;;;13.47;100.00;100157.84;5096244;28;20051;-79
2022/02/01 16:12:27;;;;;;;0.93;0.20;;;;;;;13.47;100.00;100135.44;5096185;28;20058;-80
2022/02/01 16:15:30;;;;;;;1.73;0.70;;;;;;;13.49;100.00;100137.78;5096119;28;20047;-79
2022/02/01 16:18:34;;;;;;;1.30;0.47;;;;;;;13.50;100.00;100137.28;5109114;28;20047;-78
2022/02/01 16:21:37;;;;;;;0.10;0.10;;;;;;;13.49;100.00;100138.53;5096348;28;20385;-78
2022/02/01 16:24:41;;;;;;;1.20;0.13;;;;;;;13.42;100.00;100127.00;5096099;28;20051;-79
2022/02/01 16:27:44;;;;;;;4.50;0.65;;;;;;;13.44;100.00;100147.63;5096092;28;20670;-78
2022/02/01 16:30:48;;;;;;;4.90;0.95;;;;;;;13.34;100.00;100159.44;5108542;28;20065;-78
2022/02/01 16:33:53;;;;;;;5.03;1.15;;;;;;;13.31;100.00;100138.81;5108755;28;20055;-78
2022/02/01 16:36:58;;;;;;;1.55;0.30;;;;;;;13.25;100.00;100128.78;5107716;28;20059;-78
2022/02/01 16:40:04;;;;;;;5.82;0.40;;;;;;;13.30;100.00;100142.84;5107447;28;20071;-78
2022/02/01 16:43:12;;;;;;;0.47;0.40;;;;;;;13.28;100.00;100150.97;5107537;28;20051;-78
2022/02/01 16:46:19;;;;;;;8.75;0.60;;;;;;;13.17;100.00;100156.38;5107056;28;20442;-79
2022/02/01 16:49:23;;;;;;;4.05;0.30;;;;;;;13.17;100.00;100156.38;5095181;28;20055;-78
2022/02/01 16:52:30;;;;;;;0.80;0.60;;;;;;;13.14;100.00;100156.59;5087389;28;20051;-78
2022/02/01 16:58:44;;;;;;;0.20;0.20;;;;;;;13.10;100.00;100176.38;5074747;28;20059;-78
2022/02/01 17:01:48;;;;;;;2.10;0.43;;;;;;;13.10;100.00;100161.63;5061377;28;20055;-78
2022/02/01 17:04:52;;;;;;;0.10;0.10;;;;;;;13.10;100.00;100161.63;5061875;28;20052;-79
2022/02/01 17:07:55;;;;;;;1.08;0.57;;;;;;;13.12;100.00;100170.28;5073968;28;20060;-79
2022/02/01 17:14:50;;;;;;;5.10;0.95;;;;;;;13.04;100.00;100161.50;5094224;28;20059;-80
2022/02/01 17:24:23;;;;;;;3.97;1.02;;;;;;;12.83;100.00;100182.25;5093757;28;20051;-78
2022/02/01 17:27:27;;;;;;;0.30;0.30;;;;;;;12.79;100.00;100176.09;5073758;28;20063;-79
2022/02/01 17:30:30;;;;;;;0.30;0.25;;;;;;;12.78;100.00;100185.72;5087402;28;20051;-78
2022/02/01 17:33:38;;;;;;;1.00;0.45;;;;;;;12.82;100.00;100186.31;5081227;28;20051;-78
2022/02/01 17:36:42;;;;;;;0.13;0.13;;;;;;;12.90;100.00;100179.06;5081192;28;20047;-78
2022/02/01 17:39:45;;;;;;;0.10;0.10;;;;;;;12.89;100.00;100175.50;5093041;28;20413;-78
2022/02/01 17:42:51;;;;;;;0.30;0.20;;;;;;;12.95;100.00;100178.38;5093569;28;20051;-78
2022/02/01 17:45:56;;;;;;;2.28;0.30;;;;;;;12.92;100.00;100196.13;5080709;28;20054;-78
2022/02/01 17:49:00;;;;;;;10.77;0.45;;;;;;;12.95;100.00;100178.38;5093094;28;20071;-78
2022/02/01 17:55:28;;;;;;;0.50;0.20;;;;;;;12.97;100.00;100189.88;5093448;28;20539;-79
2022/02/01 17:58:32;;;;;;;0.98;0.32;;;;;;;12.94;100.00;100183.22;5080772;28;20047;-78